Time;durP1;ratioP1;P1;durP2;ratioP2;P2;SDS_P1;SDS_P2;PMS_P1;PMS_P2;Temp;Humidity;BMP_temperature;BMP_pressure;BME280_temperature;BME280_humidity;BME280_pressure;Samples;Min_cycle;Max_cycle;Signal;HPM_P1;HPM_P2
2023/10/23 00:00:42;;;;;;;2.72;2.03;;;;;;;10.32;91.98;99613.50;5113847;28;20504;-64
2023/10/23 00:03:11;;;;;;;8.43;2.83;;;;;;;10.30;91.80;99610.94;5113788;28;20385;-64
2023/10/23 00:05:40;;;;;;;0.75;0.75;;;;;;;10.27;92.20;99616.03;5114019;28;20130;-64
2023/10/23 00:08:09;;;;;;;3.72;2.67;;;;;;;10.23;92.16;99624.56;5114085;28;20040;-64
2023/10/23 00:10:38;;;;;;;1.80;1.57;;;;;;;10.23;92.23;99632.19;5114149;28;20067;-64
2023/10/23 00:13:07;;;;;;;0.80;0.80;;;;;;;10.29;91.98;99624.56;5114302;28;20126;-64
2023/10/23 00:15:37;;;;;;;0.60;0.60;;;;;;;10.34;92.74;99617.72;5114013;28;20040;-64
2023/10/23 00:18:06;;;;;;;0.88;0.82;;;;;;;10.37;92.33;99612.63;5112529;28;20044;-64
2023/10/23 00:20:35;;;;;;;0.68;0.68;;;;;;;10.34;92.66;99617.72;5113723;28;20040;-64
2023/10/23 00:23:04;;;;;;;1.45;1.35;;;;;;;10.34;92.45;99612.63;5113608;28;20039;-64
2023/10/23 00:25:33;;;;;;;2.08;1.88;;;;;;;10.30;92.97;99605.84;5113875;28;20040;-64
2023/10/23 00:28:02;;;;;;;1.30;1.13;;;;;;;10.30;93.06;99605.84;5113694;28;20435;-64
2023/10/23 00:30:35;;;;;;;0.70;0.70;;;;;;;10.29;92.51;99608.41;5113395;28;20075;-64
2023/10/23 00:33:06;;;;;;;1.35;1.25;;;;;;;10.28;93.27;99612.66;5112467;28;20044;-64
2023/10/23 00:35:36;;;;;;;0.68;0.65;;;;;;;10.20;93.49;99609.25;5113505;28;20047;-63
2023/10/23 00:38:05;;;;;;;0.55;0.55;;;;;;;10.21;93.13;99610.94;5113514;28;20036;-64
2023/10/23 00:40:34;;;;;;;0.80;0.80;;;;;;;10.25;93.73;99612.66;5113532;28;20120;-63
2023/10/23 00:43:18;;;;;;;0.47;0.47;;;;;;;10.23;93.57;99614.34;5113446;28;20043;-63
2023/10/23 00:45:52;;;;;;;0.82;0.82;;;;;;;10.21;93.76;99607.53;5113747;28;20279;-63
2023/10/23 00:48:25;;;;;;;1.15;0.73;;;;;;;10.28;94.19;99606.69;5113665;28;20509;-64
2023/10/23 00:50:57;;;;;;;1.13;1.02;;;;;;;10.36;94.21;99605.84;5112272;28;20044;-64
2023/10/23 00:53:29;;;;;;;1.13;1.02;;;;;;;10.42;94.55;99605.81;5112161;28;20042;-63
2023/10/23 00:55:59;;;;;;;0.77;0.75;;;;;;;10.42;94.51;99605.81;5115118;28;20557;-63
2023/10/23 00:58:31;;;;;;;1.60;0.90;;;;;;;10.40;94.63;99611.78;5116417;28;20043;-63
2023/10/23 01:01:03;;;;;;;0.30;0.30;;;;;;;10.32;94.34;99614.34;5116898;28;20493;-63
2023/10/23 01:03:34;;;;;;;0.40;0.40;;;;;;;10.29;94.35;99609.25;5117444;28;20405;-63
2023/10/23 01:06:03;;;;;;;0.50;0.50;;;;;;;10.25;94.72;99612.66;5117101;28;20092;-63
2023/10/23 01:08:32;;;;;;;0.47;0.47;;;;;;;10.19;94.52;99606.69;5115718;28;20370;-64
2023/10/23 01:11:01;;;;;;;;;;;;;;;10.17;94.51;99619.47;5115886;28;20052;-63
2023/10/23 01:13:32;;;;;;;1.03;0.70;;;;;;;10.07;94.87;99625.38;5116959;28;20285;-63
2023/10/23 01:16:01;;;;;;;1.65;1.17;;;;;;;10.01;95.27;99622.81;5116648;28;20339;-63
2023/10/23 01:18:30;;;;;;;0.93;0.87;;;;;;;9.98;95.08;99618.56;5115880;28;20065;-63
2023/10/23 01:21:00;;;;;;;1.17;0.88;;;;;;;9.97;94.83;99616.00;5116532;28;20317;-63
2023/10/23 01:23:36;;;;;;;0.77;0.77;;;;;;;10.01;95.22;99607.50;5115734;28;20126;-63
2023/10/23 01:26:06;;;;;;;0.90;0.75;;;;;;;10.04;95.01;99605.81;5116399;28;20044;-63
2023/10/23 01:28:35;;;;;;;1.02;1.00;;;;;;;10.00;94.89;99599.03;5115098;28;20104;-63
2023/10/23 01:31:03;;;;;;;0.90;0.90;;;;;;;9.96;95.43;99599.88;5116268;28;20043;-63
2023/10/23 01:33:32;;;;;;;0.87;0.87;;;;;;;9.99;95.10;99604.13;5116268;28;20315;-62
2023/10/23 01:36:01;;;;;;;0.30;0.30;;;;;;;9.98;95.03;99600.72;5115374;28;20288;-63
2023/10/23 01:38:30;;;;;;;0.93;0.90;;;;;;;9.95;95.44;99598.19;5114971;28;20089;-63
2023/10/23 01:40:59;;;;;;;1.57;0.80;;;;;;;9.91;94.98;99591.34;5116194;28;20036;-63
2023/10/23 01:43:29;;;;;;;0.93;0.80;;;;;;;9.95;95.47;99598.19;5115186;28;20728;-63
2023/10/23 01:45:59;;;;;;;0.40;0.40;;;;;;;10.00;95.59;99590.53;5114938;28;20047;-63
2023/10/23 01:48:28;;;;;;;0.63;0.60;;;;;;;9.90;95.58;99593.91;5115991;28;20043;-62
2023/10/23 01:51:01;;;;;;;0.23;0.23;;;;;;;9.82;95.55;99595.59;5115896;28;20036;-63
2023/10/23 01:53:30;;;;;;;0.85;0.85;;;;;;;9.85;95.13;99591.38;5114769;28;20506;-62
2023/10/23 01:56:06;;;;;;;0.40;0.40;;;;;;;9.88;95.48;99591.38;5114714;28;20039;-63
2023/10/23 01:58:37;;;;;;;1.17;0.90;;;;;;;9.94;95.28;99590.50;5115820;28;20059;-63
2023/10/23 02:01:06;;;;;;;0.70;0.70;;;;;;;9.94;95.29;99600.72;5114848;28;20047;-63
2023/10/23 02:03:35;;;;;;;0.63;0.63;;;;;;;9.91;95.07;99585.44;5116049;28;20118;-63
2023/10/23 02:06:04;;;;;;;1.02;1.00;;;;;;;9.91;95.29;99595.63;5115817;28;20059;-63
2023/10/23 02:08:33;;;;;;;0.57;0.57;;;;;;;9.90;94.96;99588.81;5115799;28;20071;-62
2023/10/23 02:11:02;;;;;;;0.70;0.70;;;;;;;9.83;95.21;99587.13;5115798;28;20040;-63
2023/10/23 02:13:31;;;;;;;0.50;0.50;;;;;;;9.76;95.39;99582.88;5115833;28;20568;-63
2023/10/23 02:16:01;;;;;;;0.40;0.40;;;;;;;9.72;95.39;99583.69;5114264;28;20287;-62
2023/10/23 02:18:30;;;;;;;2.15;1.25;;;;;;;9.72;95.38;99586.25;5114260;28;20119;-63
2023/10/23 02:20:59;;;;;;;1.17;0.90;;;;;;;9.74;95.30;99582.84;5114195;28;20493;-62
2023/10/23 02:23:28;;;;;;;0.50;0.50;;;;;;;9.70;95.21;99587.94;5115343;28;20044;-62
2023/10/23 02:26:02;;;;;;;1.15;0.88;;;;;;;9.71;95.07;99582.88;5115367;28;20413;-62
2023/10/23 02:28:31;;;;;;;0.40;0.40;;;;;;;9.79;95.28;99585.44;5115093;28;20042;-62
2023/10/23 02:31:05;;;;;;;0.93;0.87;;;;;;;9.77;95.41;99593.06;5113875;28;20134;-63
2023/10/23 02:33:34;;;;;;;0.30;0.30;;;;;;;9.77;94.99;99597.28;5114297;28;20260;-62
2023/10/23 02:36:03;;;;;;;0.83;0.83;;;;;;;9.76;94.74;99600.72;5115366;28;20032;-63
2023/10/23 02:38:32;;;;;;;0.97;0.67;;;;;;;9.77;95.09;99603.25;5114127;28;20436;-62
2023/10/23 02:41:01;;;;;;;0.45;0.45;;;;;;;9.74;94.81;99603.25;5113883;28;20039;-62
2023/10/23 02:43:30;;;;;;;0.50;0.50;;;;;;;9.77;95.28;99610.03;5114983;28;20104;-62
2023/10/23 02:46:01;;;;;;;0.43;0.43;;;;;;;9.81;95.05;99609.22;5115171;28;20067;-62
2023/10/23 02:48:32;;;;;;;0.43;0.43;;;;;;;9.83;95.23;99615.16;5113666;28;20137;-62
2023/10/23 02:51:01;;;;;;;3.92;0.77;;;;;;;9.85;94.59;99621.09;5114796;28;20054;-62
2023/10/23 02:53:31;;;;;;;0.93;0.93;;;;;;;9.87;94.57;99620.25;5114734;28;20047;-62
2023/10/23 02:56:00;;;;;;;0.65;0.60;;;;;;;9.88;94.86;99610.91;5114994;28;20028;-62
2023/10/23 02:58:29;;;;;;;0.60;0.60;;;;;;;9.91;95.09;99616.84;5114691;28;20060;-62
2023/10/23 03:00:58;;;;;;;0.80;0.68;;;;;;;9.90;95.35;99607.53;5114590;28;20075;-62
2023/10/23 03:03:27;;;;;;;1.15;0.68;;;;;;;9.83;94.93;99617.72;5114446;28;20505;-62
2023/10/23 03:05:58;;;;;;;0.98;0.98;;;;;;;9.80;94.34;99617.69;5114441;28;20067;-62
2023/10/23 03:08:27;;;;;;;0.50;0.50;;;;;;;9.77;94.79;99617.69;5113292;28;20051;-62
2023/10/23 03:10:55;;;;;;;0.47;0.37;;;;;;;9.78;94.70;99614.31;5114381;28;20119;-62
2023/10/23 03:13:25;;;;;;;0.30;0.30;;;;;;;9.76;94.83;99616.00;5114786;28;20031;-62
2023/10/23 03:15:54;;;;;;;0.60;0.60;;;;;;;9.74;95.04;99617.69;5114357;28;20046;-62
2023/10/23 03:18:23;;;;;;;0.68;0.63;;;;;;;9.75;95.32;99614.28;5112691;28;20043;-63
2023/10/23 03:20:52;;;;;;;5.27;0.63;;;;;;;9.80;94.52;99627.88;5114244;28;20038;-62
2023/10/23 03:23:22;;;;;;;0.70;0.52;;;;;;;9.79;94.45;99621.13;5112966;28;20268;-62
2023/10/23 03:25:51;;;;;;;0.32;0.32;;;;;;;9.82;94.88;99623.63;5113340;28;20052;-63
2023/10/23 03:28:20;;;;;;;2.57;0.93;;;;;;;9.83;94.63;99627.91;5112989;28;20044;-62
2023/10/23 03:30:50;;;;;;;0.82;0.75;;;;;;;9.84;95.11;99627.03;5113928;28;20132;-62
2023/10/23 03:33:19;;;;;;;2.13;1.73;;;;;;;9.80;94.36;99628.75;5113084;28;20044;-61
2023/10/23 03:35:49;;;;;;;0.60;0.60;;;;;;;9.82;94.65;99621.09;5114818;28;20058;-62
2023/10/23 03:38:18;;;;;;;0.45;0.45;;;;;;;9.75;94.78;99622.78;5114418;28;20070;-62
2023/10/23 03:40:57;;;;;;;1.25;1.15;;;;;;;9.76;94.83;99631.28;5113990;28;20055;-62
2023/10/23 03:43:27;;;;;;;0.60;0.60;;;;;;;9.75;94.63;99639.78;5114262;28;20076;-62
2023/10/23 03:45:56;;;;;;;0.80;0.80;;;;;;;9.78;95.01;99639.78;5114193;28;20068;-63
2023/10/23 03:48:25;;;;;;;1.08;0.50;;;;;;;9.80;94.28;99630.44;5114758;28;20117;-62
2023/10/23 03:50:54;;;;;;;1.05;0.75;;;;;;;9.72;94.10;99639.75;5112741;28;20040;-62
2023/10/23 03:53:23;;;;;;;0.63;0.55;;;;;;;9.69;94.70;99639.78;5113969;28;20101;-62
2023/10/23 03:55:52;;;;;;;0.63;0.57;;;;;;;9.69;94.12;99647.41;5113779;28;20052;-62
2023/10/23 03:58:22;;;;;;;0.50;0.50;;;;;;;9.77;94.70;99643.16;5113885;28;20071;-62
2023/10/23 04:00:55;;;;;;;1.65;1.33;;;;;;;9.75;94.97;99642.31;5113945;28;20493;-62
2023/10/23 04:03:24;;;;;;;1.00;0.90;;;;;;;9.79;95.00;99646.59;5114191;28;20083;-62
2023/10/23 04:05:53;;;;;;;0.40;0.40;;;;;;;9.83;95.07;99638.09;5114143;28;20039;-62
2023/10/23 04:08:22;;;;;;;1.05;0.95;;;;;;;9.85;95.01;99641.50;5113688;28;20126;-62
2023/10/23 04:10:51;;;;;;;0.82;0.80;;;;;;;9.84;94.22;99639.78;5113650;28;20490;-62
2023/10/23 04:13:20;;;;;;;0.43;0.43;;;;;;;9.81;94.27;99640.63;5113768;28;20043;-62
2023/10/23 04:15:55;;;;;;;0.70;0.70;;;;;;;9.77;94.09;99649.13;5113632;28;20042;-63
2023/10/23 04:18:25;;;;;;;7.22;0.85;;;;;;;9.70;94.62;99646.56;5114318;28;20389;-62
2023/10/23 04:21:04;;;;;;;0.45;0.45;;;;;;;9.68;94.73;99643.16;5114260;28;20439;-62
2023/10/23 04:23:33;;;;;;;0.55;0.55;;;;;;;9.69;94.70;99649.97;5113952;28;20071;-62
2023/10/23 04:26:02;;;;;;;3.13;1.42;;;;;;;9.73;94.76;99649.13;5113628;28;20043;-62
2023/10/23 04:28:31;;;;;;;2.67;1.80;;;;;;;9.77;94.39;99648.28;5113791;28;20032;-62
2023/10/23 04:31:02;;;;;;;1.40;1.33;;;;;;;9.82;94.71;99651.69;5116413;28;20139;-62
2023/10/23 04:33:32;;;;;;;0.50;0.50;;;;;;;9.83;94.56;99658.50;5117489;28;20498;-62
2023/10/23 04:36:01;;;;;;;1.13;1.07;;;;;;;9.79;94.03;99656.78;5118049;28;20370;-62
2023/10/23 04:38:32;;;;;;;1.45;0.80;;;;;;;9.82;94.36;99659.31;5117537;28;20367;-62
2023/10/23 04:41:01;;;;;;;1.20;1.10;;;;;;;9.79;93.87;99657.63;5117306;28;20048;-62
2023/10/23 04:43:30;;;;;;;2.08;1.65;;;;;;;9.76;94.32;99651.69;5117524;28;20067;-62
2023/10/23 04:46:01;;;;;;;0.85;0.75;;;;;;;9.69;94.20;99652.53;5117474;28;20070;-62
2023/10/23 04:48:30;;;;;;;0.32;0.32;;;;;;;9.64;93.54;99649.09;5117399;28;20435;-62
2023/10/23 04:51:02;;;;;;;1.02;0.65;;;;;;;9.62;93.75;99648.25;5116999;28;20118;-63
2023/10/23 04:53:31;;;;;;;0.95;0.95;;;;;;;9.63;94.43;99649.94;5117133;28;20040;-62
2023/10/23 04:56:00;;;;;;;0.67;0.67;;;;;;;9.66;93.68;99655.06;5116972;28;20038;-62
2023/10/23 04:58:29;;;;;;;0.40;0.40;;;;;;;9.59;93.40;99658.44;5117317;28;20427;-63
2023/10/23 05:00:58;;;;;;;0.40;0.40;;;;;;;9.56;93.42;99653.31;5116948;28;20047;-62
2023/10/23 05:03:29;;;;;;;6.60;0.95;;;;;;;9.64;93.56;99656.75;5116850;28;20122;-62
2023/10/23 05:05:59;;;;;;;0.30;0.30;;;;;;;9.71;93.69;99666.09;5117273;28;20039;-62
2023/10/23 05:08:27;;;;;;;0.77;0.60;;;;;;;9.76;93.86;99672.06;5116737;28;20447;-62
2023/10/23 05:11:06;;;;;;;0.40;0.40;;;;;;;9.76;93.60;99661.88;5116583;28;20126;-63
2023/10/23 05:13:35;;;;;;;0.35;0.35;;;;;;;9.80;93.96;99659.34;5116667;28;20489;-62
2023/10/23 05:16:05;;;;;;;0.30;0.30;;;;;;;9.82;93.28;99652.53;5116628;28;20074;-62
2023/10/23 05:18:36;;;;;;;0.43;0.43;;;;;;;9.90;93.60;99655.09;5116599;28;20404;-63
2023/10/23 05:21:08;;;;;;;0.95;0.45;;;;;;;9.95;93.83;99658.50;5116864;28;20044;-62
2023/10/23 05:23:36;;;;;;;0.30;0.30;;;;;;;9.91;92.98;99655.09;5116480;28;20101;-62
2023/10/23 05:26:06;;;;;;;0.43;0.43;;;;;;;9.90;93.06;99665.28;5116416;28;20096;-63
2023/10/23 05:28:35;;;;;;;1.48;1.38;;;;;;;9.87;92.90;99675.47;5116387;28;20436;-62
2023/10/23 05:31:04;;;;;;;0.30;0.30;;;;;;;9.84;92.87;99676.31;5115982;28;20062;-62
2023/10/23 05:33:35;;;;;;;1.45;0.60;;;;;;;9.87;93.26;99680.56;5116422;28;20059;-62
2023/10/23 05:36:04;;;;;;;0.63;0.57;;;;;;;9.87;92.82;99683.13;5116234;28;20497;-62
2023/10/23 05:38:34;;;;;;;1.25;1.15;;;;;;;9.88;92.75;99687.41;5116328;28;20401;-62
2023/10/23 05:41:03;;;;;;;0.60;0.60;;;;;;;9.91;92.79;99682.31;5115498;28;20048;-62
2023/10/23 05:43:32;;;;;;;0.82;0.70;;;;;;;9.92;93.00;99689.09;5115055;28;20051;-62
2023/10/23 05:46:03;;;;;;;4.73;0.70;;;;;;;9.95;92.98;99694.19;5115956;28;20037;-62
2023/10/23 05:48:33;;;;;;;0.40;0.40;;;;;;;10.01;93.02;99701.84;5115911;28;20489;-63
2023/10/23 05:51:06;;;;;;;0.70;0.57;;;;;;;10.03;92.85;99703.56;5115902;28;20116;-63
2023/10/23 05:53:35;;;;;;;0.35;0.35;;;;;;;10.04;92.27;99709.50;5115885;28;20051;-62
2023/10/23 05:56:04;;;;;;;0.28;0.28;;;;;;;10.06;92.30;99701.00;5115541;28;20115;-63
2023/10/23 05:58:34;;;;;;;0.77;0.77;;;;;;;10.06;92.34;99697.59;5116025;28;20036;-63
2023/10/23 06:01:07;;;;;;;1.40;1.30;;;;;;;10.06;92.53;99700.16;5115620;28;20043;-63
2023/10/23 06:03:36;;;;;;;0.52;0.52;;;;;;;10.07;92.90;99700.19;5115962;28;20421;-63
2023/10/23 06:06:07;;;;;;;1.17;0.77;;;;;;;10.12;92.44;99702.75;5115865;27;20401;-62
2023/10/23 06:08:36;;;;;;;6.50;1.23;;;;;;;10.11;91.96;99708.66;5115985;28;20040;-63
2023/10/23 06:11:09;;;;;;;0.30;0.30;;;;;;;10.14;92.20;99707.84;5115654;28;20550;-63
2023/10/23 06:13:38;;;;;;;1.42;1.33;;;;;;;10.17;92.09;99716.38;5115745;28;20288;-63
2023/10/23 06:16:07;;;;;;;0.82;0.82;;;;;;;10.29;91.93;99718.94;5114135;28;20040;-63
2023/10/23 06:18:38;;;;;;;0.82;0.63;;;;;;;10.31;92.29;99716.38;5103032;28;20036;-63
2023/10/23 06:21:08;;;;;;;1.35;0.90;;;;;;;10.28;92.23;99719.78;5111473;28;20052;-64
2023/10/23 06:23:38;;;;;;;0.77;0.77;;;;;;;10.26;91.76;99721.47;5115140;28;20046;-63
2023/10/23 06:26:07;;;;;;;;;;;;;;;10.26;91.88;99713.84;5115640;28;20039;-63
2023/10/23 06:28:37;;;;;;;0.52;0.52;;;;;;;10.25;91.88;99709.56;5112890;28;20361;-63
2023/10/23 06:31:06;;;;;;;0.43;0.43;;;;;;;10.26;92.00;99724.03;5112562;28;20056;-63
2023/10/23 06:33:36;;;;;;;2.15;2.00;;;;;;;10.28;91.70;99727.44;5101401;28;20566;-63
2023/10/23 06:36:06;;;;;;;;;;;;;;;10.29;91.85;99721.50;5115323;28;20055;-63
2023/10/23 06:38:36;;;;;;;;;;;;;;;10.29;92.14;99716.41;5115246;28;19927;-63
2023/10/23 06:41:05;;;;;;;0.98;0.95;;;;;;;10.38;92.43;99721.50;5114963;28;19927;-63
2023/10/23 06:43:35;;;;;;;0.30;0.30;;;;;;;10.48;91.77;99720.66;5105636;28;20497;-63
2023/10/23 06:46:06;;;;;;;0.45;0.45;;;;;;;10.53;91.63;99718.94;5094498;28;20440;-63
2023/10/23 06:48:35;;;;;;;0.57;0.57;;;;;;;10.55;91.81;99714.69;5094176;28;20036;-63
2023/10/23 06:51:05;;;;;;;0.52;0.50;;;;;;;10.60;92.13;99717.25;5093876;28;20425;-63
2023/10/23 06:53:36;;;;;;;1.05;0.90;;;;;;;10.64;91.51;99730.00;5093642;28;20131;-63
2023/10/23 06:56:05;;;;;;;0.70;0.70;;;;;;;10.60;91.81;99720.66;5094207;28;20043;-63
2023/10/23 06:58:34;;;;;;;0.63;0.63;;;;;;;10.60;91.32;99713.00;5103803;28;20493;-63
2023/10/23 07:01:07;;;;;;;0.38;0.38;;;;;;;10.59;91.46;99713.84;5114716;28;20035;-63
2023/10/23 07:03:37;;;;;;;0.22;0.22;;;;;;;10.59;91.58;99721.50;5111762;28;20096;-63
2023/10/23 07:06:07;;;;;;;0.60;0.60;;;;;;;10.57;91.25;99723.19;5114415;28;20043;-63
2023/10/23 07:08:39;;;;;;;0.50;0.50;;;;;;;10.61;91.39;99718.94;5113351;28;20047;-65
2023/10/23 07:11:16;;;;;;;2.33;1.77;;;;;;;10.65;91.67;99720.66;5101752;28;20048;-63
2023/10/23 07:13:45;;;;;;;0.70;0.70;;;;;;;10.67;91.31;99724.91;5093415;28;20132;-63
2023/10/23 07:16:14;;;;;;;1.03;0.80;;;;;;;10.70;91.31;99729.97;5093345;28;20073;-63
2023/10/23 07:18:43;;;;;;;8.55;1.58;;;;;;;10.71;91.04;99725.75;5093828;28;20032;-63
2023/10/23 07:21:12;;;;;;;;;;;;;;;10.71;91.20;99731.69;5094448;28;20048;-63
2023/10/23 07:23:45;;;;;;;0.30;0.30;;;;;;;10.73;91.36;99734.25;5101303;28;20018;-63
2023/10/23 07:26:15;;;;;;;0.68;0.68;;;;;;;10.78;91.21;99723.19;5106884;28;20043;-63
2023/10/23 07:28:44;;;;;;;0.57;0.57;;;;;;;10.89;91.11;99719.78;5093628;28;20043;-63
2023/10/23 07:31:13;;;;;;;0.47;0.47;;;;;;;10.87;90.94;99721.47;5093580;28;20049;-63
2023/10/23 07:33:42;;;;;;;3.50;2.17;;;;;;;10.95;91.10;99724.84;5093563;28;20566;-63
2023/10/23 07:36:12;;;;;;;0.40;0.40;;;;;;;11.05;91.16;99721.44;5093672;28;20072;-64
2023/10/23 07:38:43;;;;;;;0.30;0.30;;;;;;;11.13;91.25;99719.72;5093576;28;20367;-63
2023/10/23 07:41:14;;;;;;;0.35;0.35;;;;;;;11.22;91.00;99720.56;5094102;28;20044;-63
2023/10/23 07:43:43;;;;;;;0.40;0.40;;;;;;;11.39;91.14;99717.94;5093459;28;20043;-63
2023/10/23 07:46:12;;;;;;;1.88;1.15;;;;;;;11.54;90.98;99717.88;5092942;28;20508;-63
2023/10/23 07:48:47;;;;;;;0.30;0.30;;;;;;;11.57;90.66;99722.13;5094179;28;20048;-63
2023/10/23 07:51:16;;;;;;;0.57;0.57;;;;;;;11.59;90.97;99720.44;5093305;28;20040;-63
2023/10/23 07:53:44;;;;;;;0.65;0.63;;;;;;;11.60;90.57;99730.63;5100011;28;20111;-62
2023/10/23 07:56:15;;;;;;;0.40;0.40;;;;;;;11.68;90.43;99728.94;5112262;28;20052;-63
2023/10/23 07:58:44;;;;;;;0.43;0.43;;;;;;;11.72;90.32;99730.63;5111533;28;20361;-63
2023/10/23 08:01:14;;;;;;;1.70;0.93;;;;;;;11.77;90.07;99721.22;5113739;28;20032;-63
2023/10/23 08:03:43;;;;;;;0.40;0.40;;;;;;;11.92;90.05;99725.41;5114955;28;20276;-63
2023/10/23 08:06:12;;;;;;;0.57;0.57;;;;;;;12.03;89.84;99729.59;5118202;28;20036;-63
2023/10/23 08:08:43;;;;;;;0.52;0.52;;;;;;;12.14;89.46;99726.13;5117192;28;20050;-62
2023/10/23 08:11:14;;;;;;;0.77;0.77;;;;;;;12.21;89.51;99727.78;5117818;28;20047;-62
2023/10/23 08:13:43;;;;;;;1.33;1.20;;;;;;;12.24;89.35;99722.66;5116616;28;20069;-62
2023/10/23 08:16:12;;;;;;;0.60;0.50;;;;;;;12.19;89.24;99725.22;5117677;28;20134;-63
2023/10/23 08:18:41;;;;;;;0.38;0.38;;;;;;;12.16;88.90;99726.97;5116516;28;20320;-65
2023/10/23 08:21:12;;;;;;;0.40;0.40;;;;;;;12.17;88.67;99728.66;5117585;28;20051;-64
2023/10/23 08:23:42;;;;;;;0.50;0.50;;;;;;;12.17;88.60;99728.66;5117582;28;20141;-64
2023/10/23 08:26:11;;;;;;;0.40;0.40;;;;;;;12.12;88.52;99726.13;5117785;28;20505;-64
2023/10/23 08:28:42;;;;;;;0.77;0.77;;;;;;;12.14;88.62;99731.25;5116013;28;20062;-64
2023/10/23 08:31:15;;;;;;;0.68;0.68;;;;;;;12.22;88.44;99730.31;5115542;28;20070;-64
2023/10/23 08:34:04;;;;;;;1.00;0.93;;;;;;;12.29;88.11;99731.13;5095711;28;20040;-63
2023/10/23 08:36:34;;;;;;;0.38;0.38;;;;;;;12.38;88.16;99728.53;5099301;28;20118;-64
2023/10/23 08:39:04;;;;;;;0.55;0.55;;;;;;;12.50;87.83;99731.81;5114320;28;20031;-63
2023/10/23 08:41:34;;;;;;;0.40;0.40;;;;;;;12.57;87.62;99732.66;5117495;28;20048;-62
2023/10/23 08:44:05;;;;;;;7.97;2.20;;;;;;;12.77;87.52;99720.50;5117626;28;20045;-63
2023/10/23 08:46:35;;;;;;;4.22;0.80;;;;;;;12.91;87.03;99721.22;5111597;28;20043;-63
2023/10/23 08:49:04;;;;;;;0.82;0.82;;;;;;;12.95;86.40;99715.22;5101911;27;20044;-64
2023/10/23 08:51:35;;;;;;;0.60;0.60;;;;;;;13.07;85.66;99720.25;5112511;28;20051;-64
2023/10/23 08:54:09;;;;;;;0.75;0.75;;;;;;;13.21;85.53;99713.28;5105035;27;20066;-62
2023/10/23 08:56:42;;;;;;;1.05;0.45;;;;;;;13.30;84.70;99713.16;5096448;28;20050;-62
2023/10/23 08:59:14;;;;;;;1.10;1.08;;;;;;;13.51;84.26;99716.34;5096438;28;20086;-63
2023/10/23 09:01:43;;;;;;;0.80;0.80;;;;;;;13.65;83.92;99709.34;5096356;28;20058;-63
2023/10/23 09:04:12;;;;;;;0.77;0.77;;;;;;;13.78;83.96;99708.28;5095652;28;20062;-64
2023/10/23 09:06:42;;;;;;;0.63;0.63;;;;;;;13.84;83.18;99703.09;5096234;28;20293;-64
2023/10/23 09:09:11;;;;;;;0.40;0.40;;;;;;;13.83;82.26;99703.97;5096616;28;20494;-64
2023/10/23 09:11:45;;;;;;;0.50;0.50;;;;;;;13.89;81.68;99711.59;5096506;28;20036;-62
2023/10/23 09:14:25;;;;;;;2.55;0.73;;;;;;;13.93;81.80;99710.66;5096256;28;20043;-63
2023/10/23 09:16:56;;;;;;;1.63;1.08;;;;;;;14.03;81.18;99717.38;5094644;28;20097;-62
2023/10/23 09:19:27;;;;;;;1.13;0.65;;;;;;;14.16;81.11;99718.88;5096930;28;20048;-65
2023/10/23 09:21:57;;;;;;;0.50;0.50;;;;;;;14.37;80.60;99731.41;5095449;28;20397;-65
2023/10/23 09:24:27;;;;;;;0.73;0.73;;;;;;;14.57;80.45;99731.97;5096126;28;20044;-65
2023/10/23 09:26:55;;;;;;;0.50;0.50;;;;;;;14.71;80.24;99732.59;5096018;28;20532;-64
2023/10/23 09:29:27;;;;;;;7.35;0.95;;;;;;;14.76;79.37;99740.22;5095924;28;20037;-65
2023/10/23 09:31:57;;;;;;;0.70;0.70;;;;;;;14.87;79.13;99735.75;5095448;28;20136;-65
2023/10/23 09:34:26;;;;;;;0.98;0.70;;;;;;;15.08;78.88;99739.66;5099954;28;20520;-64
2023/10/23 09:36:55;;;;;;;1.70;1.10;;;;;;;15.41;78.46;99729.59;5105515;28;20127;-65
2023/10/23 09:39:25;;;;;;;0.77;0.77;;;;;;;15.49;77.88;99734.63;5108843;28;20292;-66
2023/10/23 09:41:54;;;;;;;0.60;0.60;;;;;;;15.54;77.66;99730.25;5112188;28;20044;-65
2023/10/23 09:44:24;;;;;;;0.50;0.50;;;;;;;15.67;77.25;99731.69;5097386;28;20046;-66
2023/10/23 09:46:58;;;;;;;0.70;0.70;;;;;;;15.80;76.65;99722.84;5116159;27;20050;-65
2023/10/23 09:49:30;;;;;;;0.50;0.50;;;;;;;15.92;75.83;99714.84;5115943;28;20047;-64
2023/10/23 09:52:01;;;;;;;0.73;0.73;;;;;;;15.88;75.02;99710.63;5101800;28;20139;-65
2023/10/23 09:54:32;;;;;;;0.65;0.57;;;;;;;15.96;75.23;99702.75;5103961;28;20036;-66
2023/10/23 09:57:05;;;;;;;0.70;0.70;;;;;;;16.14;75.08;99697.19;5095975;28;20445;-64
2023/10/23 09:59:42;;;;;;;0.65;0.63;;;;;;;16.19;74.39;99704.81;5095673;28;20072;-64
2023/10/23 10:02:15;;;;;;;2.53;1.75;;;;;;;16.27;74.05;99702.91;5095381;28;20071;-65
2023/10/23 10:04:53;;;;;;;0.45;0.45;;;;;;;16.53;74.06;99700.59;5115383;28;20130;-65
2023/10/23 10:07:28;;;;;;;0.85;0.85;;;;;;;16.75;73.71;99692.28;5115636;28;20067;-65
2023/10/23 10:09:58;;;;;;;0.50;0.50;;;;;;;16.74;72.81;99690.59;5115804;28;20043;-65
2023/10/23 10:12:27;;;;;;;0.98;0.95;;;;;;;16.95;72.94;99684.03;5115616;28;20040;-66
2023/10/23 10:14:59;;;;;;;0.57;0.57;;;;;;;16.98;72.41;99689.13;5096832;28;20131;-64
2023/10/23 10:17:30;;;;;;;3.70;0.90;;;;;;;17.12;71.93;99689.59;5095246;28;20051;-64
2023/10/23 10:20:03;;;;;;;0.47;0.47;;;;;;;17.06;71.48;99682.00;5095336;28;20044;-64
2023/10/23 10:22:36;;;;;;;1.65;1.42;;;;;;;17.09;71.16;99676.75;5094864;28;20072;-66
2023/10/23 10:25:07;;;;;;;0.95;0.85;;;;;;;17.16;70.94;99670.53;5111631;28;20442;-65
2023/10/23 10:27:36;;;;;;;0.38;0.38;;;;;;;17.29;70.44;99666.75;5115499;28;20040;-66
2023/10/23 10:30:07;;;;;;;3.08;1.58;;;;;;;17.28;69.98;99656.47;5095261;28;20398;-66
2023/10/23 10:32:38;;;;;;;0.68;0.65;;;;;;;17.24;69.68;99660.88;5111194;28;20043;-66
2023/10/23 10:35:28;;;;;;;0.55;0.55;;;;;;;17.28;69.41;99662.47;5098503;28;20078;-65
2023/10/23 10:38:13;;;;;;;0.50;0.50;;;;;;;17.37;69.44;99657.03;5094982;28;20071;-66
2023/10/23 10:41:00;;;;;;;0.82;0.82;;;;;;;17.46;69.59;99658.53;5094842;28;20409;-65
2023/10/23 10:43:32;;;;;;;0.75;0.70;;;;;;;17.55;70.36;99654.84;5094885;28;20512;-66
2023/10/23 10:46:04;;;;;;;0.55;0.55;;;;;;;17.83;70.26;99650.56;5113011;28;20067;-66
2023/10/23 10:48:45;;;;;;;1.13;1.02;;;;;;;18.16;70.90;99648.66;5100432;28;20378;-66
2023/10/23 10:51:16;;;;;;;0.30;0.30;;;;;;;18.30;70.07;99642.16;5101987;28;20115;-67
2023/10/23 10:53:47;;;;;;;0.60;0.60;;;;;;;18.24;68.84;99642.34;5094195;28;20044;-65
2023/10/23 10:56:16;;;;;;;0.63;0.63;;;;;;;18.42;67.88;99635.75;5094771;28;20048;-66
2023/10/23 10:58:45;;;;;;;1.15;0.90;;;;;;;18.57;67.24;99641.25;5094602;28;20036;-65
2023/10/23 11:01:14;;;;;;;0.40;0.40;;;;;;;18.57;66.91;99636.09;5094129;28;20126;-65
2023/10/23 11:03:45;;;;;;;0.90;0.90;;;;;;;18.53;66.33;99638.84;5094325;28;20044;-66
2023/10/23 11:06:14;;;;;;;0.70;0.70;;;;;;;18.55;66.11;99632.72;5094092;28;20058;-65
2023/10/23 11:08:43;;;;;;;;;;;;;;;18.67;66.36;99627.13;5094493;28;20047;-64
2023/10/23 11:11:12;;;;;;;0.60;0.60;;;;;;;18.64;66.03;99632.41;5094001;28;19931;-66
2023/10/23 11:13:43;;;;;;;1.20;1.13;;;;;;;18.77;66.40;99627.66;5110832;28;20039;-66
2023/10/23 11:16:13;;;;;;;0.50;0.50;;;;;;;19.03;66.44;99619.81;5114718;28;20160;-65
2023/10/23 11:18:42;;;;;;;0.77;0.68;;;;;;;19.07;66.08;99620.56;5114581;28;20050;-67
2023/10/23 11:21:12;;;;;;;1.55;1.00;;;;;;;19.11;65.79;99614.38;5114296;28;20126;-66
2023/10/23 11:23:42;;;;;;;0.60;0.60;;;;;;;19.09;65.53;99611.00;5112999;28;20093;-64
2023/10/23 11:26:11;;;;;;;;;;;;;;;19.01;64.89;99615.59;5114536;28;20048;-65
2023/10/23 11:28:40;;;;;;;0.65;0.65;;;;;;;18.87;64.68;99613.50;5114205;28;19919;-65
2023/10/23 11:31:09;;;;;;;0.70;0.70;;;;;;;18.88;64.52;99609.19;5114047;28;20048;-66
2023/10/23 11:33:39;;;;;;;0.70;0.70;;;;;;;19.05;64.39;99599.09;5096694;28;20047;-65
2023/10/23 11:36:10;;;;;;;0.50;0.50;;;;;;;19.01;63.73;99603.50;5093695;28;20393;-65
2023/10/23 11:38:41;;;;;;;0.45;0.45;;;;;;;19.04;63.67;99599.97;5093688;28;20492;-65
2023/10/23 11:41:10;;;;;;;0.50;0.50;;;;;;;19.11;63.42;99606.63;5093665;28;20051;-65
2023/10/23 11:43:39;;;;;;;0.60;0.60;;;;;;;19.33;63.44;99598.00;5093379;28;20071;-65
2023/10/23 11:46:08;;;;;;;0.45;0.45;;;;;;;19.32;62.91;99603.22;5093531;28;20044;-65
2023/10/23 11:48:37;;;;;;;0.63;0.63;;;;;;;19.31;62.44;99588.63;5093541;28;20089;-66
2023/10/23 11:51:06;;;;;;;0.40;0.40;;;;;;;19.23;62.38;99590.63;5095022;28;20039;-69
2023/10/23 11:53:35;;;;;;;1.15;1.02;;;;;;;19.31;62.30;99580.84;5097366;28;20425;-65